Time;durP1;ratioP1;P1;durP2;ratioP2;P2;SDS_P1;SDS_P2;PMS_P1;PMS_P2;Temp;Humidity;BMP_temperature;BMP_pressure;BME280_temperature;BME280_humidity;BME280_pressure;Samples;Min_cycle;Max_cycle;Signal;HPM_P1;HPM_P2
2022/11/02 00:01:43;;;;;;;1.02;0.63;;;14.50;79.30;;;;;;5112789;28;20160;-71
2022/11/02 00:04:09;;;;;;;2.97;0.80;;;14.40;79.20;;;;;;5112925;28;20328;-72
2022/11/02 00:06:35;;;;;;;1.33;0.68;;;14.50;79.30;;;;;;5094460;28;20055;-71
2022/11/02 00:09:01;;;;;;;0.50;0.50;;;14.40;79.20;;;;;;5075820;28;20405;-72
2022/11/02 00:11:26;;;;;;;1.05;0.50;;;14.50;79.20;;;;;;5094692;28;20062;-71
2022/11/02 00:13:52;;;;;;;0.95;0.45;;;14.40;79.20;;;;;;5094856;28;20464;-72
2022/11/02 00:16:21;;;;;;;1.27;0.50;;;14.40;79.20;;;;;;5112743;28;20040;-72
2022/11/02 00:18:50;;;;;;;2.30;0.60;;;14.40;79.20;;;;;;5108746;28;20039;-72
2022/11/02 00:21:17;;;;;;;1.63;0.77;;;14.50;79.30;;;;;;5094740;28;20116;-72
2022/11/02 00:23:44;;;;;;;2.53;0.77;;;14.40;79.20;;;;;;5112847;28;20483;-72
2022/11/02 00:26:09;;;;;;;4.28;1.20;;;14.50;79.20;;;;;;5112022;28;20032;-72
2022/11/02 00:28:35;;;;;;;3.28;1.20;;;14.40;79.10;;;;;;5092941;28;20032;-73
2022/11/02 00:31:01;;;;;;;3.15;0.90;;;14.30;79.30;;;;;;5075067;28;20054;-73
2022/11/02 00:33:26;;;;;;;2.47;0.93;;;14.10;79.60;;;;;;5112681;28;20043;-72
2022/11/02 00:35:53;;;;;;;3.03;0.82;;;14.10;80.10;;;;;;5092964;28;20040;-73
2022/11/02 00:38:19;;;;;;;2.47;0.65;;;14.00;80.30;;;;;;5112538;28;20035;-72
2022/11/02 00:40:45;;;;;;;3.08;1.00;;;13.90;80.50;;;;;;5093682;28;20112;-72
2022/11/02 00:43:11;;;;;;;1.80;0.60;;;13.90;80.80;;;;;;5112497;28;20490;-72
2022/11/02 00:45:37;;;;;;;1.17;0.73;;;13.80;81.00;;;;;;5094064;28;20051;-72
2022/11/02 00:48:03;;;;;;;1.45;0.70;;;13.70;81.20;;;;;;5093909;28;20111;-73
2022/11/02 00:50:29;;;;;;;2.55;0.60;;;13.70;81.40;;;;;;5111898;28;20066;-72
2022/11/02 00:52:55;;;;;;;1.70;0.60;;;13.60;81.50;;;;;;5112385;28;20035;-73
2022/11/02 00:55:21;;;;;;;0.73;0.55;;;13.60;81.70;;;;;;5112670;28;20044;-73
2022/11/02 00:57:46;;;;;;;1.98;0.52;;;13.50;81.80;;;;;;5093521;28;20035;-73
2022/11/02 01:00:14;;;;;;;0.77;0.38;;;13.50;81.90;;;;;;5112370;28;20038;-72
2022/11/02 01:02:40;;;;;;;0.80;0.47;;;13.40;81.90;;;;;;5112230;28;20042;-72
2022/11/02 01:05:07;;;;;;;0.93;0.60;;;13.50;82.00;;;;;;5112021;28;20114;-72
2022/11/02 01:07:33;;;;;;;0.60;0.30;;;13.40;82.00;;;;;;5112354;28;20032;-73
2022/11/02 01:09:58;;;;;;;1.58;0.43;;;13.50;82.00;;;;;;5112019;28;20054;-72
2022/11/02 01:12:24;;;;;;;1.75;0.32;;;13.50;81.90;;;;;;5075071;28;20351;-72
2022/11/02 01:14:50;;;;;;;1.15;0.50;;;13.50;81.80;;;;;;5111845;28;20040;-72
2022/11/02 01:17:17;;;;;;;1.15;0.40;;;13.50;81.80;;;;;;5093517;28;20107;-72
2022/11/02 01:19:43;;;;;;;1.60;0.60;;;13.50;81.80;;;;;;5112014;28;20027;-72
2022/11/02 01:22:09;;;;;;;1.00;0.50;;;13.50;81.90;;;;;;5111457;28;20058;-72
2022/11/02 01:24:35;;;;;;;2.28;0.60;;;13.60;82.00;;;;;;5111597;28;20123;-72
2022/11/02 01:27:00;;;;;;;1.92;0.50;;;13.60;82.00;;;;;;5092379;28;20040;-72
2022/11/02 01:29:26;;;;;;;1.42;0.57;;;13.50;81.90;;;;;;5092482;28;20451;-72
2022/11/02 01:31:52;;;;;;;0.98;0.40;;;13.50;81.90;;;;;;5093375;28;20051;-72
2022/11/02 01:34:19;;;;;;;0.45;0.25;;;13.40;82.60;;;;;;5111656;28;20116;-72
2022/11/02 01:36:45;;;;;;;1.17;0.50;;;13.50;82.20;;;;;;5111422;28;20036;-73
2022/11/02 01:39:12;;;;;;;0.30;0.30;;;13.50;82.30;;;;;;5115368;28;20039;-72
2022/11/02 01:41:38;;;;;;;1.05;0.60;;;13.50;82.30;;;;;;5097383;28;20050;-72
2022/11/02 01:44:04;;;;;;;1.13;0.38;;;13.40;82.20;;;;;;5115007;28;20035;-72
2022/11/02 01:46:41;;;;;;;0.38;0.30;;;13.50;82.30;;;;;;5114996;28;20081;-72
2022/11/02 01:49:12;;;;;;;1.83;0.70;;;13.50;82.30;;;;;;5114903;28;20541;-73
2022/11/02 01:51:40;;;;;;;;;;;13.40;82.20;;;;;;5115851;28;20043;-72
2022/11/02 01:54:11;;;;;;;0.93;0.30;;;13.50;82.20;;;;;;5096768;28;19970;-73
2022/11/02 01:56:38;;;;;;;1.30;0.40;;;13.50;81.90;;;;;;5115309;28;20050;-72
2022/11/02 01:59:11;;;;;;;1.02;0.38;;;13.40;81.80;;;;;;5115293;28;20489;-73
2022/11/02 02:01:37;;;;;;;0.30;0.30;;;13.20;81.80;;;;;;5114786;28;20417;-72
2022/11/02 02:04:03;;;;;;;1.42;0.30;;;13.10;82.00;;;;;;5115270;28;20038;-73
2022/11/02 02:06:29;;;;;;;0.43;0.30;;;13.00;82.10;;;;;;5115343;28;20040;-73
2022/11/02 02:08:58;;;;;;;0.65;0.30;;;12.90;82.20;;;;;;5096129;28;20047;-73
2022/11/02 02:11:31;;;;;;;0.47;0.20;;;12.80;82.40;;;;;;5114759;28;20039;-72
2022/11/02 02:14:03;;;;;;;0.20;0.20;;;12.80;82.40;;;;;;5114390;28;20168;-73
2022/11/02 02:16:54;;;;;;;0.65;0.20;;;12.70;82.50;;;;;;5114480;28;20315;-72
2022/11/02 02:19:52;;;;;;;0.40;0.40;;;12.60;82.50;;;;;;5114417;28;20050;-72
2022/11/02 02:22:35;;;;;;;0.10;0.10;;;12.60;82.50;;;;;;5114815;28;20073;-73
2022/11/02 02:25:36;;;;;;;0.30;0.30;;;12.50;82.60;;;;;;5111275;28;20144;-72
2022/11/02 02:28:19;;;;;;;0.43;0.25;;;12.50;82.70;;;;;;5099085;28;20065;-73
2022/11/02 02:30:52;;;;;;;0.43;0.20;;;12.50;82.70;;;;;;5114290;28;20065;-72
2022/11/02 02:33:45;;;;;;;1.30;0.30;;;12.50;82.80;;;;;;5114306;28;20028;-72
2022/11/02 02:36:21;;;;;;;0.55;0.20;;;12.40;82.70;;;;;;5097572;28;20059;-72
2022/11/02 02:38:57;;;;;;;0.10;0.10;;;12.40;82.70;;;;;;5110841;28;20044;-72
2022/11/02 02:41:30;;;;;;;0.32;0.20;;;12.40;82.80;;;;;;5112619;28;20187;-73
2022/11/02 02:43:59;;;;;;;0.30;0.22;;;12.30;82.70;;;;;;5113993;28;20051;-72
2022/11/02 02:46:42;;;;;;;0.63;0.28;;;12.30;82.80;;;;;;5095721;28;20546;-72
2022/11/02 02:49:14;;;;;;;0.17;0.17;;;12.20;82.80;;;;;;5114311;28;20043;-72
2022/11/02 02:51:42;;;;;;;0.10;0.10;;;12.20;82.90;;;;;;5113798;28;20050;-73
2022/11/02 02:54:18;;;;;;;0.52;0.25;;;12.20;83.00;;;;;;5113994;28;20524;-72
2022/11/02 02:56:51;;;;;;;0.25;0.20;;;12.10;82.90;;;;;;5113849;28;20118;-73
2022/11/02 02:59:24;;;;;;;1.05;0.30;;;12.20;83.00;;;;;;5113906;28;20070;-72
2022/11/02 03:01:51;;;;;;;0.60;0.20;;;12.10;82.90;;;;;;5111019;28;20054;-72
2022/11/02 03:04:17;;;;;;;1.25;0.20;;;12.20;82.90;;;;;;5113846;28;20093;-72
2022/11/02 03:06:48;;;;;;;0.50;0.30;;;12.20;82.80;;;;;;5095616;28;20059;-72
2022/11/02 03:09:28;;;;;;;;;;;12.20;82.70;;;;;;5114793;28;20067;-72
2022/11/02 03:12:21;;;;;;;1.40;0.40;;;12.20;82.70;;;;;;5113614;28;20383;-72
2022/11/02 03:15:20;;;;;;;1.70;0.45;;;12.20;83.20;;;;;;5113799;28;20439;-72
2022/11/02 03:18:07;;;;;;;0.80;0.30;;;12.30;82.40;;;;;;5113662;28;20089;-72
2022/11/02 03:21:00;;;;;;;1.65;0.32;;;12.40;82.30;;;;;;5113543;28;20039;-72
2022/11/02 03:23:40;;;;;;;0.40;0.30;;;12.40;82.10;;;;;;5113376;28;20386;-73
2022/11/02 03:26:12;;;;;;;0.95;0.35;;;12.40;82.60;;;;;;5110245;28;20054;-73
2022/11/02 03:28:59;;;;;;;2.05;0.60;;;12.50;81.90;;;;;;5110216;28;20039;-72
2022/11/02 03:31:36;;;;;;;1.25;0.50;;;12.40;81.80;;;;;;5113981;28;20047;-72
2022/11/02 03:34:14;;;;;;;1.20;0.50;;;12.50;81.70;;;;;;5112341;28;20043;-73
2022/11/02 03:36:48;;;;;;;1.60;0.50;;;12.50;81.70;;;;;;5096008;28;20040;-73
2022/11/02 03:39:18;;;;;;;0.85;0.40;;;12.50;81.80;;;;;;5111240;28;20125;-73
2022/11/02 03:41:47;;;;;;;0.95;0.50;;;12.40;81.90;;;;;;5095239;28;20493;-72
2022/11/02 03:44:20;;;;;;;0.93;0.40;;;12.40;82.10;;;;;;5113444;28;20046;-72
2022/11/02 03:46:48;;;;;;;1.13;0.40;;;12.40;82.00;;;;;;5094069;28;20051;-72
2022/11/02 03:49:17;;;;;;;1.75;0.45;;;12.40;82.00;;;;;;5113074;28;20036;-73
2022/11/02 03:51:45;;;;;;;1.23;0.60;;;12.50;82.10;;;;;;5113265;28;20156;-73
2022/11/02 03:54:22;;;;;;;2.30;0.73;;;12.40;82.00;;;;;;5094835;28;20036;-73
2022/11/02 03:56:52;;;;;;;1.55;0.47;;;12.40;82.10;;;;;;5113109;28;20052;-72
2022/11/02 03:59:18;;;;;;;0.95;0.45;;;12.50;82.10;;;;;;5113072;28;20133;-72
2022/11/02 04:01:47;;;;;;;1.52;0.60;;;12.40;81.90;;;;;;5094206;28;20040;-72
2022/11/02 04:04:13;;;;;;;2.75;0.93;;;12.40;81.80;;;;;;5093362;28;20123;-72
2022/11/02 04:06:41;;;;;;;1.92;0.70;;;12.50;81.80;;;;;;5095138;28;20044;-73
2022/11/02 04:09:07;;;;;;;1.98;0.68;;;12.50;81.70;;;;;;5112901;28;20039;-72
2022/11/02 04:19:40;;;;;;;1.92;0.60;;;12.50;81.80;;;;;;5081814;28;20431;-73
2022/11/02 04:27:32;;;;;;;1.70;0.50;;;12.50;81.70;;;;;;5112486;28;20040;-72
2022/11/02 04:29:58;;;;;;;1.98;0.60;;;12.50;81.70;;;;;;5112587;28;20062;-72
2022/11/02 04:35:02;;;;;;;1.83;0.65;;;12.50;81.70;;;;;;5112396;28;20042;-72
2022/11/02 04:40:12;;;;;;;1.80;0.65;;;12.50;81.60;;;;;;5112476;28;20047;-72
2022/11/02 04:42:37;;;;;;;2.53;0.95;;;12.50;81.40;;;;;;5112346;28;20046;-73
2022/11/02 04:45:03;;;;;;;2.08;0.77;;;12.50;81.30;;;;;;5112350;28;20044;-72
2022/11/02 04:47:29;;;;;;;1.33;0.50;;;12.60;81.40;;;;;;5093993;28;20043;-73
2022/11/02 04:49:58;;;;;;;1.52;0.70;;;12.60;81.30;;;;;;5094082;28;20047;-72
2022/11/02 04:52:24;;;;;;;1.65;0.77;;;12.60;81.30;;;;;;5112228;28;20238;-73
2022/11/02 04:54:50;;;;;;;0.93;0.45;;;12.60;81.30;;;;;;5112648;28;20038;-72
2022/11/02 04:57:16;;;;;;;0.98;0.50;;;12.60;81.30;;;;;;5112131;28;20055;-72
2022/11/02 04:59:41;;;;;;;2.60;0.80;;;12.60;81.30;;;;;;5112060;28;20044;-72
2022/11/02 05:02:07;;;;;;;2.53;0.70;;;12.50;81.30;;;;;;5112302;28;20086;-73
2022/11/02 05:04:33;;;;;;;3.08;0.60;;;12.70;81.40;;;;;;5112283;28;20071;-72
2022/11/02 05:06:59;;;;;;;2.10;0.85;;;12.60;81.40;;;;;;5112364;28;20524;-72
2022/11/02 05:09:25;;;;;;;2.97;0.80;;;12.50;81.30;;;;;;5112454;28;20058;-73
2022/11/02 05:11:50;;;;;;;2.95;0.80;;;12.60;81.20;;;;;;5094175;28;20039;-72
2022/11/02 05:14:16;;;;;;;3.28;0.82;;;12.60;81.20;;;;;;5115589;28;20571;-72
2022/11/02 05:16:42;;;;;;;1.60;0.75;;;12.60;81.20;;;;;;5115877;28;20040;-72
2022/11/02 05:19:07;;;;;;;0.82;0.55;;;12.70;81.50;;;;;;5115828;28;20040;-72
2022/11/02 05:21:33;;;;;;;2.05;0.77;;;12.70;81.20;;;;;;5115803;28;20054;-72
2022/11/02 05:23:59;;;;;;;2.05;0.70;;;12.60;81.00;;;;;;5115699;28;20040;-72
2022/11/02 05:26:24;;;;;;;2.42;0.82;;;12.70;81.10;;;;;;5115745;28;20047;-72
2022/11/02 05:28:51;;;;;;;3.25;0.82;;;12.70;81.10;;;;;;5115607;28;20401;-72
2022/11/02 05:31:17;;;;;;;2.17;0.63;;;12.70;81.10;;;;;;5115375;28;20047;-72
2022/11/02 05:33:43;;;;;;;1.98;0.70;;;12.70;81.10;;;;;;5116261;28;20028;-72
2022/11/02 05:36:08;;;;;;;1.63;0.52;;;12.70;81.10;;;;;;5115890;28;20040;-73
2022/11/02 05:38:34;;;;;;;2.30;0.70;;;12.70;81.10;;;;;;5115574;28;20036;-72
2022/11/02 05:41:02;;;;;;;1.67;0.50;;;12.60;81.10;;;;;;5115378;28;20038;-73
2022/11/02 05:43:28;;;;;;;4.47;0.95;;;12.70;81.20;;;;;;5115242;28;20047;-72
2022/11/02 05:45:57;;;;;;;2.90;0.75;;;12.70;81.20;;;;;;5115960;28;20039;-72
2022/11/02 05:48:25;;;;;;;3.15;0.80;;;12.60;81.10;;;;;;5097250;28;20039;-72
2022/11/02 05:50:55;;;;;;;2.20;0.70;;;12.70;81.10;;;;;;5111403;28;20493;-72
2022/11/02 05:53:22;;;;;;;2.40;0.70;;;12.70;81.10;;;;;;5112021;28;20039;-72
2022/11/02 05:55:47;;;;;;;3.40;0.82;;;12.70;81.10;;;;;;5096760;28;20047;-72
2022/11/02 05:58:13;;;;;;;1.02;0.50;;;12.70;81.10;;;;;;5115729;28;20551;-72
2022/11/02 06:00:39;;;;;;;2.13;0.70;;;12.70;81.00;;;;;;5097450;28;20557;-73
2022/11/02 06:03:05;;;;;;;2.53;0.60;;;12.70;81.10;;;;;;5115417;28;20055;-73
2022/11/02 06:05:31;;;;;;;0.93;0.60;;;12.70;81.10;;;;;;5115164;28;20114;-72
2022/11/02 06:07:58;;;;;;;2.70;0.80;;;12.70;81.20;;;;;;5115059;28;20506;-72
2022/11/02 06:10:25;;;;;;;1.05;0.57;;;12.60;81.20;;;;;;5115148;28;20047;-72
2022/11/02 06:12:56;;;;;;;1.65;0.70;;;12.70;81.30;;;;;;5114510;28;20450;-73
2022/11/02 06:15:22;;;;;;;;;;;12.60;81.20;;;;;;5097363;28;20114;-72
2022/11/02 06:17:48;;;;;;;1.27;0.50;;;12.60;81.20;;;;;;5114716;28;19954;-72
2022/11/02 06:20:14;;;;;;;2.58;0.70;;;12.60;81.20;;;;;;5114780;28;20168;-72
2022/11/02 06:22:40;;;;;;;2.20;0.68;;;12.60;81.20;;;;;;5096540;28;20069;-72
2022/11/02 06:25:07;;;;;;;2.80;0.70;;;12.60;81.20;;;;;;5114168;28;20039;-72
2022/11/02 06:27:33;;;;;;;3.35;0.90;;;12.60;81.20;;;;;;5054787;28;20097;-72
2022/11/02 06:29:59;;;;;;;2.33;0.80;;;12.60;81.20;;;;;;5071748;28;20506;-72
2022/11/02 06:32:25;;;;;;;2.22;0.80;;;12.60;81.30;;;;;;5071942;28;20047;-73
2022/11/02 06:34:50;;;;;;;2.58;0.93;;;12.50;81.30;;;;;;5072052;28;20044;-72
2022/11/02 06:37:16;;;;;;;0.73;0.47;;;12.50;81.30;;;;;;5071888;28;20143;-72
2022/11/02 06:39:42;;;;;;;1.15;0.52;;;12.50;81.40;;;;;;5071529;28;20063;-72
2022/11/02 06:42:08;;;;;;;1.98;0.60;;;12.50;81.40;;;;;;5054728;28;20529;-73
2022/11/02 06:44:34;;;;;;;1.38;0.50;;;12.50;81.50;;;;;;5071538;28;20055;-73
2022/11/02 06:47:00;;;;;;;1.08;0.40;;;12.50;81.60;;;;;;5071509;28;20032;-73
2022/11/02 06:49:25;;;;;;;1.08;0.47;;;12.30;81.50;;;;;;5071494;28;20129;-72
2022/11/02 06:51:51;;;;;;;1.60;0.52;;;12.40;81.60;;;;;;5071516;28;20880;-72
2022/11/02 06:54:17;;;;;;;2.63;0.47;;;12.40;81.70;;;;;;5054892;28;20040;-72
2022/11/02 06:56:43;;;;;;;3.42;0.80;;;12.30;81.70;;;;;;5071905;28;20087;-72
2022/11/02 06:59:08;;;;;;;0.98;0.43;;;12.30;81.80;;;;;;5101582;28;20040;-72
2022/11/02 07:01:34;;;;;;;1.00;0.50;;;12.20;81.90;;;;;;5114259;28;20076;-72
2022/11/02 07:04:01;;;;;;;1.02;0.60;;;12.20;82.00;;;;;;5094673;28;20090;-72
2022/11/02 07:06:27;;;;;;;1.38;0.47;;;12.20;82.10;;;;;;5114553;28;20108;-72
2022/11/02 07:08:53;;;;;;;2.50;0.55;;;12.10;82.20;;;;;;5113943;28;20493;-72
2022/11/02 07:11:19;;;;;;;0.68;0.50;;;12.10;82.30;;;;;;5094815;28;20097;-73
2022/11/02 07:13:45;;;;;;;2.03;0.50;;;12.10;82.40;;;;;;5113733;28;20048;-72
2022/11/02 07:16:11;;;;;;;2.75;0.47;;;12.10;82.40;;;;;;5113603;28;20027;-72
2022/11/02 07:18:37;;;;;;;1.80;0.50;;;12.10;82.50;;;;;;5113777;28;20050;-72
2022/11/02 07:21:03;;;;;;;2.53;0.47;;;12.10;82.50;;;;;;5113932;28;20051;-73
2022/11/02 07:23:29;;;;;;;2.97;0.70;;;12.00;82.50;;;;;;5113532;28;20092;-73
2022/11/02 07:25:54;;;;;;;2.03;0.47;;;12.00;82.40;;;;;;5094438;28;20127;-72
2022/11/02 07:28:20;;;;;;;1.48;0.57;;;12.00;82.40;;;;;;5113644;28;20101;-72
2022/11/02 07:30:46;;;;;;;0.57;0.30;;;12.00;83.00;;;;;;5113679;28;20036;-72
2022/11/02 07:33:12;;;;;;;1.70;0.45;;;11.90;82.40;;;;;;5095821;28;20091;-72
2022/11/02 07:35:47;;;;;;;1.45;0.52;;;12.00;82.50;;;;;;5112343;28;20492;-72
2022/11/02 07:38:13;;;;;;;1.20;0.47;;;12.10;82.50;;;;;;5010406;28;20053;-72
2022/11/02 07:40:39;;;;;;;1.30;0.60;;;12.10;82.30;;;;;;4994735;28;20046;-73
2022/11/02 07:43:05;;;;;;;3.30;0.60;;;12.20;82.10;;;;;;5011301;28;20488;-73
2022/11/02 07:45:31;;;;;;;1.35;0.40;;;12.10;81.90;;;;;;5010883;28;20425;-72
2022/11/02 07:47:57;;;;;;;1.30;0.50;;;12.30;81.90;;;;;;5011124;28;20048;-72
2022/11/02 07:50:25;;;;;;;0.65;0.40;;;12.30;81.80;;;;;;4962064;28;20045;-74
2022/11/02 07:52:54;;;;;;;1.80;0.40;;;12.30;81.70;;;;;;4994738;28;20107;-72
2022/11/02 07:55:23;;;;;;;1.35;0.50;;;12.30;81.70;;;;;;4994705;28;20080;-71
2022/11/02 07:58:08;;;;;;;1.35;0.45;;;12.30;81.70;;;;;;5010762;28;20042;-73
2022/11/02 08:00:36;;;;;;;3.30;0.60;;;12.30;81.70;;;;;;4994877;28;20050;-71
2022/11/02 08:03:04;;;;;;;2.05;0.55;;;12.30;81.60;;;;;;5072321;28;20046;-72
2022/11/02 08:05:32;;;;;;;1.20;0.52;;;12.30;81.50;;;;;;5094792;28;20043;-72
2022/11/02 08:08:01;;;;;;;2.20;0.50;;;12.40;81.50;;;;;;5113304;28;20047;-71
2022/11/02 08:10:29;;;;;;;1.30;0.50;;;12.40;81.50;;;;;;5112855;28;20039;-72
2022/11/02 08:12:55;;;;;;;1.25;0.45;;;12.50;81.40;;;;;;5112892;28;20036;-72
2022/11/02 08:15:21;;;;;;;1.52;0.50;;;12.50;81.30;;;;;;5112978;28;20111;-72
2022/11/02 08:17:47;;;;;;;2.22;0.73;;;12.60;81.20;;;;;;5113027;28;20036;-73
2022/11/02 08:20:12;;;;;;;1.58;0.50;;;12.60;81.00;;;;;;5112815;28;20394;-72
2022/11/02 08:22:39;;;;;;;0.85;0.52;;;12.70;81.00;;;;;;5113060;28;20080;-72
2022/11/02 08:25:06;;;;;;;0.95;0.47;;;12.70;80.90;;;;;;5094775;28;20100;-72
2022/11/02 08:27:32;;;;;;;0.73;0.50;;;12.60;81.00;;;;;;5113052;28;20056;-72
2022/11/02 08:29:58;;;;;;;1.77;0.63;;;12.60;81.00;;;;;;5112862;28;20055;-72
2022/11/02 08:32:24;;;;;;;1.70;0.55;;;12.70;81.00;;;;;;5113012;28;20044;-72
2022/11/02 08:34:49;;;;;;;0.75;0.35;;;12.80;81.00;;;;;;5112801;28;20088;-72
2022/11/02 08:37:15;;;;;;;1.05;0.40;;;12.80;80.90;;;;;;5112698;28;20044;-71
2022/11/02 08:39:41;;;;;;;1.25;0.45;;;12.80;80.80;;;;;;5113163;28;20533;-72
2022/11/02 08:42:06;;;;;;;1.40;0.32;;;12.80;80.70;;;;;;5112632;28;20064;-71
2022/11/02 08:44:32;;;;;;;2.55;0.40;;;12.80;80.80;;;;;;5094086;28;20560;-72
2022/11/02 08:46:58;;;;;;;1.42;0.57;;;12.80;80.90;;;;;;5112206;28;20395;-72
2022/11/02 08:49:23;;;;;;;1.70;0.57;;;12.70;81.00;;;;;;5077401;28;20523;-71
2022/11/02 08:51:49;;;;;;;1.60;0.40;;;12.70;81.10;;;;;;5112304;28;20485;-72
2022/11/02 08:54:15;;;;;;;1.05;0.50;;;12.70;81.10;;;;;;5112507;28;20405;-72
2022/11/02 08:56:41;;;;;;;2.42;0.40;;;12.70;81.20;;;;;;5112576;28;20035;-72
2022/11/02 08:59:07;;;;;;;2.50;0.52;;;12.60;81.20;;;;;;5094173;28;20039;-72
2022/11/02 09:01:33;;;;;;;1.25;0.47;;;12.60;81.30;;;;;;5093956;28;20043;-72
2022/11/02 09:03:59;;;;;;;1.05;0.50;;;12.50;81.30;;;;;;5112131;28;20047;-72
2022/11/02 09:06:25;;;;;;;1.00;0.47;;;12.60;81.30;;;;;;5112082;28;20039;-73
2022/11/02 09:08:50;;;;;;;1.08;0.40;;;12.70;81.30;;;;;;5112630;28;20059;-72
2022/11/02 09:11:16;;;;;;;0.75;0.45;;;12.70;81.30;;;;;;5112425;28;20039;-71
2022/11/02 09:13:42;;;;;;;1.40;0.40;;;12.70;81.20;;;;;;5112221;28;20061;-71
2022/11/02 09:16:08;;;;;;;1.88;0.40;;;12.70;81.20;;;;;;5094741;28;20032;-73
2022/11/02 09:18:33;;;;;;;1.55;0.50;;;12.70;81.20;;;;;;5112123;28;20043;-71
2022/11/02 09:21:01;;;;;;;1.95;0.60;;;12.70;81.20;;;;;;5112768;28;20044;-71
2022/11/02 09:23:26;;;;;;;3.72;0.73;;;12.80;81.20;;;;;;5112154;28;20046;-71
2022/11/02 09:25:52;;;;;;;2.50;0.60;;;12.80;81.10;;;;;;5094457;28;20401;-72
2022/11/02 09:28:18;;;;;;;1.33;0.50;;;12.80;81.00;;;;;;5111763;28;20046;-72
2022/11/02 09:30:44;;;;;;;1.02;0.60;;;12.80;81.00;;;;;;5112023;28;20040;-72
2022/11/02 09:33:10;;;;;;;1.70;0.60;;;12.80;80.90;;;;;;5093858;28;20088;-72
2022/11/02 09:35:39;;;;;;;2.08;1.02;;;12.80;80.80;;;;;;5093614;28;20036;-72
2022/11/02 09:38:05;;;;;;;1.70;0.43;;;12.80;80.80;;;;;;5111838;28;20070;-73
2022/11/02 09:40:37;;;;;;;1.48;0.45;;;12.80;80.80;;;;;;5076624;28;20069;-72
2022/11/02 09:43:30;;;;;;;0.93;0.30;;;12.80;80.80;;;;;;5108846;28;20070;-72
2022/11/02 09:46:02;;;;;;;1.05;0.50;;;12.90;81.00;;;;;;5093137;28;20043;-72
2022/11/02 09:48:34;;;;;;;1.27;0.47;;;12.90;80.90;;;;;;5111919;28;20035;-73
2022/11/02 09:51:08;;;;;;;0.95;0.47;;;12.90;80.80;;;;;;5093362;28;20104;-71
2022/11/02 09:53:43;;;;;;;1.40;0.50;;;12.80;80.70;;;;;;5094841;28;20034;-72
2022/11/02 09:56:11;;;;;;;2.63;0.43;;;13.00;80.70;;;;;;5111531;28;20074;-72
2022/11/02 09:58:39;;;;;;;0.88;0.40;;;12.90;80.60;;;;;;5093178;28;20447;-71
2022/11/02 10:01:15;;;;;;;1.08;0.38;;;13.00;80.60;;;;;;5095805;28;20040;-71
2022/11/02 10:04:13;;;;;;;2.15;0.50;;;13.00;80.60;;;;;;5114083;28;20134;-71
2022/11/02 10:06:46;;;;;;;0.30;0.30;;;13.00;80.60;;;;;;5114828;28;20047;-71
2022/11/02 10:09:25;;;;;;;1.45;0.50;;;13.10;80.60;;;;;;5096322;28;20508;-71
2022/11/02 10:12:01;;;;;;;1.27;0.45;;;13.00;80.40;;;;;;5115391;28;20130;-72
2022/11/02 10:14:33;;;;;;;1.10;0.40;;;13.00;80.40;;;;;;5115462;28;20054;-72
2022/11/02 10:17:21;;;;;;;0.80;0.40;;;13.10;80.30;;;;;;5096459;28;20047;-70
2022/11/02 10:19:55;;;;;;;2.38;0.68;;;13.10;80.20;;;;;;5066110;28;20439;-71
2022/11/02 10:22:26;;;;;;;1.95;0.50;;;13.20;80.10;;;;;;5114914;28;20036;-71
2022/11/02 10:24:56;;;;;;;3.03;0.55;;;13.20;80.00;;;;;;5114474;28;20043;-69
2022/11/02 10:27:28;;;;;;;1.45;0.63;;;13.20;79.90;;;;;;5114524;28;20040;-72
2022/11/02 10:30:00;;;;;;;2.08;0.65;;;13.20;79.90;;;;;;5097201;28;20071;-71
2022/11/02 10:32:29;;;;;;;1.35;0.40;;;13.30;79.90;;;;;;5094383;28;20109;-71
2022/11/02 10:34:55;;;;;;;0.30;0.30;;;13.30;79.80;;;;;;5096993;28;20073;-72
2022/11/02 10:37:45;;;;;;;1.70;0.50;;;13.40;79.80;;;;;;5096542;28;20063;-71
2022/11/02 10:40:38;;;;;;;1.63;0.50;;;13.50;79.80;;;;;;5112287;28;20040;-71
2022/11/02 10:43:30;;;;;;;1.05;0.40;;;13.60;79.70;;;;;;5114293;28;20481;-72
2022/11/02 10:46:22;;;;;;;0.65;0.30;;;13.60;79.40;;;;;;5113599;28;20031;-71
2022/11/02 10:49:09;;;;;;;1.85;0.57;;;13.60;79.30;;;;;;5096105;28;20068;-71
2022/11/02 10:51:35;;;;;;;1.45;0.40;;;13.60;79.20;;;;;;5113968;28;20085;-72
2022/11/02 10:54:01;;;;;;;2.30;0.65;;;13.60;79.30;;;;;;5095876;28;20035;-72
2022/11/02 10:56:31;;;;;;;1.50;0.55;;;13.60;79.30;;;;;;5096711;28;20050;-72
2022/11/02 10:59:02;;;;;;;1.92;0.70;;;13.70;79.30;;;;;;5096584;28;20460;-72
2022/11/02 11:01:30;;;;;;;1.65;0.50;;;13.70;79.10;;;;;;5096521;28;20047;-72
2022/11/02 11:03:59;;;;;;;0.50;0.38;;;13.70;79.10;;;;;;5114936;28;20462;-72
2022/11/02 11:06:41;;;;;;;1.48;0.50;;;13.70;79.10;;;;;;5092743;28;20040;-71
2022/11/02 11:09:23;;;;;;;1.73;0.60;;;13.70;79.10;;;;;;5113910;28;20063;-71
2022/11/02 11:12:00;;;;;;;1.38;0.47;;;13.80;79.10;;;;;;5094855;28;20036;-71
2022/11/02 11:14:28;;;;;;;2.45;0.60;;;13.80;78.90;;;;;;5114473;28;20047;-71
2022/11/02 11:16:58;;;;;;;1.83;0.65;;;13.90;78.80;;;;;;5113918;28;20039;-71
2022/11/02 11:19:45;;;;;;;1.02;0.50;;;14.00;78.80;;;;;;5114227;28;20066;-71
2022/11/02 11:22:31;;;;;;;1.75;0.40;;;14.00;78.70;;;;;;5113823;28;20118;-71
2022/11/02 11:25:23;;;;;;;0.95;0.50;;;14.10;78.60;;;;;;5110462;28;20044;-71
2022/11/02 11:27:53;;;;;;;1.20;0.60;;;14.20;78.40;;;;;;5099004;28;20066;-71
2022/11/02 11:30:34;;;;;;;1.10;0.40;;;14.20;78.20;;;;;;5113219;28;20046;-72
2022/11/02 11:33:02;;;;;;;1.17;0.60;;;14.30;78.10;;;;;;5096223;28;20046;-72
2022/11/02 11:35:33;;;;;;;0.90;0.50;;;14.30;78.10;;;;;;5113166;28;20481;-71
2022/11/02 11:38:02;;;;;;;1.08;0.40;;;14.30;78.10;;;;;;5095972;28;20028;-71
2022/11/02 11:40:35;;;;;;;1.50;0.60;;;14.30;78.10;;;;;;5113507;28;20067;-72
2022/11/02 11:43:03;;;;;;;0.98;0.50;;;14.30;78.20;;;;;;5113489;28;20481;-72
2022/11/02 11:45:31;;;;;;;1.10;0.50;;;14.40;78.20;;;;;;5095428;28;20093;-72
2022/11/02 11:48:16;;;;;;;1.65;0.60;;;14.40;78.00;;;;;;5113567;28;20067;-71
2022/11/02 11:50:47;;;;;;;0.93;0.50;;;14.40;78.00;;;;;;5097393;28;20112;-72
2022/11/02 11:53:20;;;;;;;0.68;0.45;;;14.50;77.80;;;;;;5113506;28;20042;-71
2022/11/02 11:55:57;;;;;;;1.95;0.80;;;14.60;77.70;;;;;;5111008;28;20119;-72
2022/11/02 11:58:25;;;;;;;0.65;0.40;;;14.80;77.60;;;;;;5113654;28;21188;-72
2022/11/02 12:01:09;;;;;;;0.68;0.38;;;14.90;77.40;;;;;;5113096;28;20050;-73
2022/11/02 12:03:57;;;;;;;0.40;0.35;;;15.00;77.10;;;;;;5110732;28;20040;-72
2022/11/02 12:06:42;;;;;;;1.02;0.50;;;15.20;76.80;;;;;;5112839;28;20067;-72
2022/11/02 12:09:37;;;;;;;2.17;0.70;;;15.30;76.30;;;;;;5112903;28;20051;-72
2022/11/02 12:12:17;;;;;;;1.35;0.55;;;15.30;76.20;;;;;;5112863;28;20063;-72
2022/11/02 12:15:06;;;;;;;0.85;0.43;;;15.30;76.30;;;;;;5077638;28;20063;-71
2022/11/02 12:17:56;;;;;;;2.13;0.60;;;15.40;76.50;;;;;;5112874;28;20500;-71
2022/11/02 12:20:49;;;;;;;1.50;0.60;;;15.40;76.20;;;;;;5112812;28;20074;-71
2022/11/02 12:23:31;;;;;;;2.35;0.68;;;15.40;76.10;;;;;;5097188;28;20043;-71
2022/11/02 12:26:26;;;;;;;1.13;0.60;;;15.40;75.90;;;;;;5093854;28;20453;-71
2022/11/02 12:29:09;;;;;;;1.98;0.60;;;15.40;75.90;;;;;;5098648;28;20044;-71
2022/11/02 12:31:40;;;;;;;0.60;0.40;;;15.50;75.90;;;;;;5113253;28;20469;-71
2022/11/02 12:34:37;;;;;;;2.42;0.70;;;15.50;75.80;;;;;;5094318;28;20035;-73
2022/11/02 12:37:15;;;;;;;0.70;0.40;;;15.50;75.80;;;;;;5095846;28;20039;-72
2022/11/02 12:40:18;;;;;;;1.55;0.63;;;15.50;75.60;;;;;;5095343;28;20480;-71
2022/11/02 12:43:04;;;;;;;1.48;0.60;;;15.50;75.60;;;;;;5112351;28;20043;-72
2022/11/02 12:45:58;;;;;;;0.80;0.50;;;15.50;75.60;;;;;;5111868;28;20123;-72
2022/11/02 12:48:44;;;;;;;1.40;0.60;;;15.50;75.50;;;;;;5112535;28;20074;-71
2022/11/02 12:51:16;;;;;;;1.48;0.70;;;15.60;75.20;;;;;;5110651;28;20092;-70
2022/11/02 12:53:58;;;;;;;1.20;0.47;;;15.70;75.20;;;;;;5093921;28;20036;-72
2022/11/02 12:56:37;;;;;;;1.40;0.50;;;15.80;75.00;;;;;;5096021;28;20040;-71
2022/11/02 12:59:03;;;;;;;1.20;0.55;;;15.70;74.80;;;;;;5095543;28;20130;-71
2022/11/02 13:01:34;;;;;;;0.75;0.60;;;15.70;75.00;;;;;;5112296;28;20157;-71
2022/11/02 13:04:18;;;;;;;1.92;0.52;;;15.70;74.80;;;;;;5112551;28;20123;-72
2022/11/02 13:06:47;;;;;;;1.33;0.57;;;15.60;75.00;;;;;;5112509;28;20051;-71
2022/11/02 13:09:27;;;;;;;0.63;0.45;;;15.60;75.20;;;;;;5094427;28;20044;-72
2022/11/02 13:12:01;;;;;;;3.13;0.60;;;15.60;75.10;;;;;;5108808;28;20044;-72
2022/11/02 13:14:32;;;;;;;1.95;0.52;;;15.70;75.00;;;;;;5109728;28;20035;-72
2022/11/02 13:17:05;;;;;;;1.52;0.52;;;15.60;74.70;;;;;;5112468;28;20035;-72
2022/11/02 13:19:39;;;;;;;2.97;0.80;;;15.70;74.60;;;;;;5112095;28;20054;-72
2022/11/02 13:22:09;;;;;;;2.58;0.70;;;15.60;74.50;;;;;;5112530;28;20111;-72
2022/11/02 13:24:42;;;;;;;2.95;0.70;;;15.60;74.70;;;;;;5112204;28;20047;-72
2022/11/02 13:27:31;;;;;;;2.00;0.50;;;15.50;74.60;;;;;;5090856;28;20036;-72